createdAt,value
2022-08-31T00:00:44.839Z,92.96
2022-08-31T00:03:32.425Z,93.01
2022-08-31T00:06:03.408Z,93.10
2022-08-31T00:08:33.702Z,93.10
2022-08-31T00:11:02.311Z,93.19
2022-08-31T00:13:30.807Z,93.26
2022-08-31T00:15:59.105Z,93.43
2022-08-31T00:18:28.030Z,93.53
2022-08-31T00:20:56.370Z,93.60
2022-08-31T00:23:25.520Z,93.65
2022-08-31T00:25:53.987Z,93.74
2022-08-31T00:28:22.362Z,93.93
2022-08-31T00:30:51.722Z,93.93
2022-08-31T00:33:20.901Z,94.09
2022-08-31T00:37:15.452Z,94.31
2022-08-31T00:39:43.774Z,94.39
2022-08-31T00:42:12.658Z,94.42
2022-08-31T00:44:41.926Z,94.62
2022-08-31T00:47:10.458Z,94.87
2022-08-31T00:49:43.026Z,95.00
2022-08-31T00:52:16.450Z,95.13
2022-08-31T00:55:09.739Z,95.23
2022-08-31T00:57:43.143Z,95.38
2022-08-31T01:00:18.896Z,95.41
2022-08-31T01:02:48.214Z,95.42
2022-08-31T01:05:18.679Z,95.38
2022-08-31T01:07:50.546Z,95.50
2022-08-31T01:10:22.484Z,95.49
2022-08-31T01:12:54.956Z,95.61
2022-08-31T01:15:25.285Z,95.66
2022-08-31T01:17:57.459Z,95.72
2022-08-31T01:20:49.150Z,95.65
2022-08-31T01:23:39.076Z,95.68
2022-08-31T01:26:10.063Z,95.85
2022-08-31T01:28:38.454Z,95.70
2022-08-31T01:31:23.626Z,95.75
2022-08-31T01:33:52.165Z,95.91
2022-08-31T01:36:21.783Z,96.00
2022-08-31T01:38:52.814Z,95.96
2022-08-31T01:41:22.461Z,96.13
2022-08-31T01:43:53.160Z,96.23
2022-08-31T01:46:21.818Z,96.07
2022-08-31T01:48:50.699Z,96.27
2022-08-31T01:51:22.149Z,96.30
2022-08-31T01:53:52.799Z,96.11
2022-08-31T01:56:29.502Z,96.10
2022-08-31T01:58:58.689Z,96.08
2022-08-31T02:01:35.268Z,96.08
2022-08-31T02:04:06.680Z,95.84
2022-08-31T02:06:36.553Z,95.73
2022-08-31T02:09:07.341Z,95.73
2022-08-31T02:11:36.525Z,95.66
2022-08-31T02:14:07.092Z,95.58
2022-08-31T02:16:37.357Z,95.45
2022-08-31T02:19:06.731Z,95.35
2022-08-31T02:21:36.729Z,95.33
2022-08-31T02:24:07.498Z,95.39
2022-08-31T02:26:35.878Z,95.29
2022-08-31T02:29:07.540Z,95.26
2022-08-31T02:31:36.177Z,95.21
2022-08-31T02:34:05.066Z,95.17
2022-08-31T02:36:35.717Z,95.10
2022-08-31T02:39:05.901Z,95.23
2022-08-31T02:41:34.578Z,95.33
2022-08-31T02:44:04.516Z,95.14
2022-08-31T02:46:33.918Z,95.23
2022-08-31T02:49:03.762Z,95.14
2022-08-31T02:51:32.165Z,95.29
2022-08-31T02:54:00.508Z,95.14
2022-08-31T02:56:28.884Z,95.15
2022-08-31T02:58:57.285Z,95.13
2022-08-31T03:01:29.390Z,95.09
2022-08-31T03:03:58.465Z,95.21
2022-08-31T03:06:27.012Z,95.23
2022-08-31T03:08:55.664Z,95.11
2022-08-31T03:11:23.969Z,95.42
2022-08-31T03:13:56.445Z,95.51
2022-08-31T03:16:27.077Z,95.53
2022-08-31T03:18:55.451Z,95.67
2022-08-31T03:21:23.821Z,95.80
2022-08-31T03:23:52.138Z,95.72
2022-08-31T03:26:20.523Z,95.78
2022-08-31T03:28:48.898Z,95.92
2022-08-31T03:31:17.321Z,96.10
2022-08-31T03:33:45.698Z,96.34
2022-08-31T03:36:15.902Z,96.36
2022-08-31T03:38:44.337Z,96.40
2022-08-31T03:41:20.293Z,96.52
2022-08-31T03:43:48.691Z,96.69
2022-08-31T03:46:17.122Z,96.65
2022-08-31T03:48:48.796Z,96.87
2022-08-31T03:51:20.396Z,97.03
2022-08-31T03:53:48.772Z,97.18
2022-08-31T03:56:17.185Z,97.18
2022-08-31T03:58:46.257Z,97.37
2022-08-31T04:01:15.217Z,97.44
2022-08-31T04:03:43.614Z,97.30
2022-08-31T04:06:13.487Z,97.49
2022-08-31T04:08:42.334Z,97.74
2022-08-31T04:11:16.034Z,97.77
2022-08-31T04:13:44.790Z,97.84
2022-08-31T04:16:17.271Z,97.87
2022-08-31T04:18:47.495Z,98.07
2022-08-31T04:21:21.488Z,98.07
2022-08-31T04:23:51.536Z,98.31
2022-08-31T04:26:25.531Z,98.44
2022-08-31T04:28:54.797Z,98.49
2022-08-31T04:31:27.916Z,98.56
2022-08-31T04:33:57.570Z,98.70
2022-08-31T04:36:29.126Z,98.83
2022-08-31T04:39:00.693Z,99.04
2022-08-31T04:41:32.254Z,99.21
2022-08-31T04:44:03.874Z,99.26
2022-08-31T04:46:36.234Z,99.26
2022-08-31T04:49:05.313Z,99.37
2022-08-31T04:51:36.689Z,99.44
2022-08-31T04:54:10.215Z,99.66
2022-08-31T04:56:44.031Z,99.75
2022-08-31T04:59:16.330Z,99.80
2022-08-31T05:01:46.326Z,99.76
2022-08-31T05:04:16.375Z,99.63
2022-08-31T05:06:47.000Z,99.56
2022-08-31T05:09:22.762Z,99.77
2022-08-31T05:11:53.460Z,99.85
2022-08-31T05:14:23.815Z,99.92
2022-08-31T05:16:52.846Z,100.00
2022-08-31T05:19:23.707Z,100.00
2022-08-31T05:21:52.082Z,100.00
2022-08-31T05:24:22.903Z,100.00
2022-08-31T05:26:55.389Z,100.00
2022-08-31T05:29:26.328Z,100.00
2022-08-31T05:31:54.955Z,100.00
2022-08-31T05:34:23.972Z,99.99
2022-08-31T05:36:56.118Z,99.95
2022-08-31T05:39:26.214Z,99.85
2022-08-31T05:41:54.873Z,99.82
2022-08-31T05:44:23.672Z,99.76
2022-08-31T05:47:03.463Z,99.54
2022-08-31T05:49:33.887Z,99.32
2022-08-31T05:52:03.474Z,99.16
2022-08-31T05:54:36.726Z,99.19
2022-08-31T05:57:05.365Z,99.11
2022-08-31T05:59:35.438Z,99.13
2022-08-31T06:02:05.029Z,99.03
2022-08-31T06:04:33.345Z,99.05
2022-08-31T06:07:01.711Z,99.18
2022-08-31T06:09:30.012Z,98.98
2022-08-31T06:11:58.500Z,98.87
2022-08-31T06:14:27.063Z,98.74
2022-08-31T06:16:56.270Z,98.65
2022-08-31T06:19:24.643Z,98.65
2022-08-31T06:21:53.036Z,98.57
2022-08-31T06:24:21.552Z,98.68
2022-08-31T06:26:58.441Z,98.54
2022-08-31T06:29:31.484Z,98.27
2022-08-31T06:32:00.861Z,97.95
2022-08-31T06:34:29.424Z,97.96
2022-08-31T06:36:57.956Z,97.88
2022-08-31T06:39:26.644Z,97.65
2022-08-31T06:41:56.143Z,97.48
2022-08-31T06:44:24.568Z,97.35
2022-08-31T06:46:53.638Z,97.36
2022-08-31T06:49:23.186Z,96.93
2022-08-31T06:51:51.803Z,96.54
2022-08-31T06:54:35.995Z,96.17
2022-08-31T06:57:04.495Z,96.23
2022-08-31T06:59:33.536Z,95.93
2022-08-31T07:02:02.937Z,95.76
2022-08-31T07:04:38.721Z,95.57
2022-08-31T07:07:11.672Z,95.47
2022-08-31T07:09:41.366Z,95.45
2022-08-31T07:12:09.951Z,95.04
2022-08-31T07:14:38.456Z,94.91
2022-08-31T07:17:08.466Z,94.59
2022-08-31T07:19:36.867Z,94.29
2022-08-31T07:22:11.444Z,93.91
2022-08-31T07:24:44.057Z,93.83
2022-08-31T07:27:16.643Z,93.75
2022-08-31T07:29:45.357Z,93.36
2022-08-31T07:32:15.881Z,92.93
2022-08-31T07:34:44.659Z,92.84
2022-08-31T07:37:31.677Z,92.50
2022-08-31T07:40:18.888Z,92.49
2022-08-31T07:42:47.498Z,92.49
2022-08-31T07:45:29.157Z,92.32
2022-08-31T07:48:00.595Z,92.09
2022-08-31T07:50:31.808Z,91.74
2022-08-31T07:55:26.669Z,91.47
2022-08-31T07:57:56.557Z,91.29
2022-08-31T08:00:29.081Z,91.35
2022-08-31T08:03:01.876Z,91.39
2022-08-31T08:05:38.904Z,91.08
2022-08-31T08:08:13.877Z,90.99
2022-08-31T08:10:46.702Z,90.83
2022-08-31T08:13:21.337Z,90.99
2022-08-31T08:15:52.187Z,90.98
2022-08-31T08:18:21.227Z,90.96
2022-08-31T08:20:52.419Z,90.74
2022-08-31T08:23:28.552Z,90.59
2022-08-31T08:26:01.355Z,90.43
2022-08-31T08:28:40.061Z,90.57
2022-08-31T08:31:19.929Z,90.29
2022-08-31T08:33:50.492Z,90.24
2022-08-31T08:36:20.042Z,90.51
2022-08-31T08:38:51.446Z,90.37
2022-08-31T08:41:27.913Z,89.93
2022-08-31T08:44:01.039Z,89.99
2022-08-31T08:47:37.851Z,89.91
2022-08-31T08:49:54.821Z,89.40
2022-08-31T08:52:30.457Z,89.26
2022-08-31T08:55:08.592Z,89.23
2022-08-31T08:57:42.795Z,88.86
2022-08-31T09:00:20.776Z,88.68
2022-08-31T09:03:01.229Z,88.60
2022-08-31T09:05:44.612Z,88.59
2022-08-31T09:08:32.366Z,88.78
2022-08-31T09:11:24.316Z,88.94
2022-08-31T09:14:25.644Z,88.71
2022-08-31T09:17:44.994Z,88.60
2022-08-31T09:20:15.705Z,88.78
2022-08-31T09:22:55.660Z,88.70
2022-08-31T09:25:52.476Z,88.71
2022-08-31T09:28:49.967Z,88.81
2022-08-31T09:31:42.348Z,88.62
2022-08-31T09:34:32.735Z,88.66
2022-08-31T09:37:33.985Z,88.47
2022-08-31T09:40:32.013Z,88.53
2022-08-31T09:43:37.602Z,88.51
2022-08-31T09:46:12.842Z,88.77
2022-08-31T09:48:56.272Z,88.84
2022-08-31T09:51:37.532Z,88.61
2022-08-31T09:54:33.896Z,88.72
2022-08-31T09:57:06.530Z,88.36
2022-08-31T09:59:43.897Z,88.99
2022-08-31T10:02:22.825Z,88.96
2022-08-31T10:04:56.636Z,89.09
2022-08-31T10:07:44.172Z,88.02
2022-08-31T10:10:30.163Z,86.29
2022-08-31T10:13:20.600Z,85.74
2022-08-31T10:16:14.683Z,84.19
2022-08-31T10:19:03.316Z,83.20
2022-08-31T10:21:54.281Z,82.55
2022-08-31T10:24:46.204Z,81.41
2022-08-31T10:27:38.543Z,80.01
2022-08-31T10:30:09.775Z,79.01
2022-08-31T10:32:57.802Z,79.05
2022-08-31T10:35:37.647Z,78.65
2022-08-31T10:38:27.253Z,78.11
2022-08-31T10:41:17.090Z,78.12
2022-08-31T10:44:17.868Z,77.78
2022-08-31T10:46:46.344Z,76.73
2022-08-31T10:49:14.728Z,76.64
2022-08-31T10:52:03.525Z,76.31
2022-08-31T10:55:07.477Z,76.12
2022-08-31T10:58:08.981Z,76.23
2022-08-31T11:01:17.120Z,76.33
2022-08-31T11:04:08.836Z,76.07
2022-08-31T11:07:12.334Z,76.44
2022-08-31T11:09:51.135Z,76.94
2022-08-31T11:12:27.566Z,76.91
2022-08-31T11:15:22.564Z,76.64
2022-08-31T11:18:47.911Z,76.51
2022-08-31T11:21:46.925Z,76.31
2022-08-31T11:24:39.931Z,76.26
2022-08-31T11:27:37.014Z,75.66
2022-08-31T11:30:24.552Z,75.66
2022-08-31T11:32:59.785Z,75.79
2022-08-31T11:35:49.851Z,75.86
2022-08-31T11:38:54.776Z,76.02
2022-08-31T11:41:49.103Z,75.97
2022-08-31T11:44:34.359Z,75.94
2022-08-31T11:47:28.356Z,75.97
2022-08-31T11:50:11.611Z,75.52
2022-08-31T11:52:48.335Z,75.30
2022-08-31T11:55:23.522Z,75.38
2022-08-31T11:58:07.330Z,75.50
2022-08-31T12:00:52.315Z,75.72
2022-08-31T12:04:03.687Z,75.86
2022-08-31T12:06:37.263Z,75.90
2022-08-31T12:09:38.038Z,76.08
2022-08-31T12:12:31.443Z,76.11
2022-08-31T12:15:43.332Z,76.18
2022-08-31T12:18:44.949Z,76.21
2022-08-31T12:21:47.214Z,75.93
2022-08-31T12:24:54.259Z,76.18
2022-08-31T12:28:09.379Z,75.89
2022-08-31T12:36:30.153Z,75.81
2022-08-31T12:39:21.437Z,76.05
2022-08-31T12:41:55.478Z,75.73
2022-08-31T12:44:32.173Z,75.86
2022-08-31T12:47:38.013Z,75.40
2022-08-31T12:50:35.733Z,75.28
2022-08-31T12:53:25.445Z,75.27
2022-08-31T12:56:07.080Z,75.34
2022-08-31T12:59:03.276Z,74.37
2022-08-31T13:01:32.449Z,74.29
2022-08-31T13:04:03.595Z,73.87
2022-08-31T13:06:37.033Z,73.91
2022-08-31T13:09:06.602Z,72.79
2022-08-31T13:11:41.635Z,71.88
2022-08-31T13:14:24.644Z,71.60
2022-08-31T13:17:04.856Z,71.51
2022-08-31T13:19:35.259Z,70.82
2022-08-31T13:22:17.254Z,69.42
2022-08-31T13:24:53.734Z,68.56
2022-08-31T13:27:28.671Z,67.74
2022-08-31T13:30:19.341Z,67.29
2022-08-31T13:32:51.224Z,65.69
2022-08-31T13:35:25.968Z,64.63
2022-08-31T13:38:07.921Z,64.22
2022-08-31T13:40:39.957Z,63.72
2022-08-31T13:43:10.916Z,62.68
2022-08-31T13:46:08.882Z,62.53
2022-08-31T13:48:38.762Z,61.70
2022-08-31T13:51:17.211Z,61.14
2022-08-31T13:53:54.447Z,60.29
2022-08-31T13:56:57.854Z,59.81
2022-08-31T13:59:34.013Z,59.33
2022-08-31T14:02:36.377Z,58.88
2022-08-31T14:05:08.636Z,58.64
2022-08-31T14:07:40.983Z,58.53
2022-08-31T14:10:32.881Z,58.50
2022-08-31T14:13:15.469Z,58.41
2022-08-31T14:15:58.149Z,58.87
2022-08-31T14:18:40.251Z,58.92
2022-08-31T14:21:27.445Z,58.92
2022-08-31T14:24:02.372Z,59.06
2022-08-31T14:26:36.973Z,58.93
2022-08-31T14:29:14.909Z,59.20
2022-08-31T14:31:52.515Z,59.08
2022-08-31T14:34:32.359Z,59.29
2022-08-31T14:37:06.942Z,59.53
2022-08-31T14:39:45.564Z,59.51
2022-08-31T14:42:20.223Z,59.66
2022-08-31T14:44:56.790Z,59.75
2022-08-31T14:47:31.678Z,59.85
2022-08-31T14:50:05.523Z,59.99
2022-08-31T14:52:42.106Z,60.15
2022-08-31T14:55:12.679Z,60.08
2022-08-31T14:57:45.998Z,60.15
2022-08-31T15:00:22.026Z,60.62
2022-08-31T15:02:56.247Z,60.42
2022-08-31T15:05:25.965Z,60.30
2022-08-31T15:07:55.751Z,60.60
2022-08-31T15:10:25.935Z,60.66
2022-08-31T15:12:55.415Z,60.69
2022-08-31T15:15:23.810Z,60.69
2022-08-31T15:17:52.941Z,60.37
2022-08-31T15:20:22.989Z,60.61
2022-08-31T15:22:51.451Z,60.65
2022-08-31T15:25:20.879Z,60.64
2022-08-31T15:27:49.445Z,60.62
2022-08-31T15:30:20.172Z,60.76
2022-08-31T15:32:48.877Z,61.00
2022-08-31T15:35:24.270Z,60.61
2022-08-31T15:37:59.019Z,60.47
2022-08-31T15:40:39.181Z,60.22
2022-08-31T15:43:09.691Z,60.22
2022-08-31T15:45:38.258Z,60.25
2022-08-31T15:48:25.792Z,60.14
2022-08-31T15:51:00.347Z,60.27
2022-08-31T15:53:30.987Z,60.26
2022-08-31T15:56:06.734Z,60.18
2022-08-31T15:58:39.219Z,60.28
2022-08-31T16:01:16.131Z,60.07
2022-08-31T16:03:53.535Z,60.13
2022-08-31T16:06:27.217Z,60.24
2022-08-31T16:08:56.054Z,60.36
2022-08-31T16:11:28.914Z,60.67
2022-08-31T16:14:00.902Z,60.75
2022-08-31T16:16:37.153Z,60.93
2022-08-31T16:19:08.620Z,61.08
2022-08-31T16:21:40.972Z,61.16
2022-08-31T16:24:12.961Z,61.16
2022-08-31T16:26:45.830Z,61.37
2022-08-31T16:29:21.144Z,61.50
2022-08-31T16:31:50.963Z,61.49
2022-08-31T16:34:19.790Z,61.50
2022-08-31T16:36:53.044Z,61.83
2022-08-31T16:39:24.355Z,62.23
2022-08-31T16:41:54.754Z,62.50
2022-08-31T16:44:23.078Z,62.41
2022-08-31T16:46:53.767Z,62.61
2022-08-31T16:49:34.573Z,62.91
2022-08-31T16:52:11.138Z,62.98
2022-08-31T16:54:48.527Z,63.42
2022-08-31T16:57:25.542Z,63.68
2022-08-31T16:59:57.071Z,63.74
2022-08-31T17:02:26.739Z,63.89
2022-08-31T17:05:00.639Z,63.99
2022-08-31T17:07:29.256Z,64.36
2022-08-31T17:10:06.917Z,64.50
2022-08-31T17:12:37.039Z,64.88
2022-08-31T17:15:06.456Z,64.77
2022-08-31T17:17:35.063Z,64.91
2022-08-31T17:20:05.094Z,65.38
2022-08-31T17:22:33.891Z,65.47
2022-08-31T17:25:04.422Z,65.74
2022-08-31T17:27:35.183Z,66.00
2022-08-31T17:30:07.297Z,66.33
2022-08-31T17:32:39.292Z,66.41
2022-08-31T17:35:19.106Z,66.63
2022-08-31T17:37:49.976Z,66.90
2022-08-31T17:40:18.770Z,67.12
2022-08-31T17:42:48.548Z,67.46
2022-08-31T17:45:18.901Z,67.77
2022-08-31T17:47:47.830Z,67.97
2022-08-31T17:50:22.033Z,68.15
2022-08-31T17:52:51.133Z,68.36
2022-08-31T17:55:19.841Z,68.50
2022-08-31T17:57:48.598Z,68.81
2022-08-31T18:00:17.197Z,69.01
2022-08-31T18:02:46.194Z,69.29
2022-08-31T18:05:16.273Z,69.62
2022-08-31T18:07:44.729Z,69.74
2022-08-31T18:10:14.803Z,70.00
2022-08-31T18:12:43.262Z,70.15
2022-08-31T18:15:19.123Z,70.47
2022-08-31T18:17:48.152Z,70.64
2022-08-31T18:20:16.701Z,70.92
2022-08-31T18:22:50.081Z,71.15
2022-08-31T18:25:21.351Z,71.39
2022-08-31T18:27:49.717Z,71.71
2022-08-31T18:30:19.170Z,71.88
2022-08-31T18:32:49.568Z,72.14
2022-08-31T18:35:18.020Z,72.26
2022-08-31T18:37:46.634Z,72.50
2022-08-31T18:40:33.996Z,72.66
2022-08-31T18:43:21.273Z,72.96
2022-08-31T18:45:51.447Z,73.21
2022-08-31T18:48:26.175Z,73.33
2022-08-31T18:50:59.223Z,73.46
2022-08-31T18:53:30.344Z,73.74
2022-08-31T18:56:09.232Z,74.07
2022-08-31T18:58:38.760Z,74.07
2022-08-31T19:01:10.555Z,74.18
2022-08-31T19:03:40.978Z,74.51
2022-08-31T19:06:19.555Z,74.51
2022-08-31T19:08:48.928Z,74.79
2022-08-31T19:11:19.338Z,74.98
2022-08-31T19:13:51.307Z,75.08
2022-08-31T19:16:26.459Z,75.10
2022-08-31T19:18:56.674Z,75.24
2022-08-31T19:21:33.367Z,75.31
2022-08-31T19:24:06.041Z,75.65
2022-08-31T19:26:49.682Z,75.91
2022-08-31T19:29:25.591Z,76.25
2022-08-31T19:31:56.704Z,76.51
2022-08-31T19:34:31.165Z,76.63
2022-08-31T19:37:01.090Z,76.68
2022-08-31T19:39:34.531Z,76.94
2022-08-31T19:42:08.037Z,76.96
2022-08-31T19:44:54.997Z,77.29
2022-08-31T19:47:27.768Z,77.51
2022-08-31T19:49:56.210Z,77.57
2022-08-31T19:52:25.874Z,77.80
2022-08-31T19:54:54.786Z,78.07
2022-08-31T19:57:23.348Z,78.20
2022-08-31T19:59:51.674Z,78.23
2022-08-31T20:02:20.204Z,78.49
2022-08-31T20:04:48.623Z,78.57
2022-08-31T20:07:17.134Z,78.79
2022-08-31T20:09:46.073Z,78.96
2022-08-31T20:12:14.418Z,79.20
2022-08-31T20:14:44.596Z,79.15
2022-08-31T20:17:13.141Z,79.34
2022-08-31T20:19:42.808Z,79.61
2022-08-31T20:22:12.502Z,79.66
2022-08-31T20:24:43.963Z,79.97
2022-08-31T20:27:18.447Z,80.15
2022-08-31T20:29:48.243Z,80.30
2022-08-31T20:32:16.816Z,80.37
2022-08-31T20:34:45.314Z,80.51
2022-08-31T20:37:13.851Z,80.70
2022-08-31T20:39:42.334Z,80.84
2022-08-31T20:42:10.634Z,81.15
2022-08-31T20:44:39.478Z,81.39
2022-08-31T20:47:29.242Z,81.37
2022-08-31T20:50:03.951Z,81.68
2022-08-31T20:52:35.160Z,81.97
2022-08-31T20:55:07.456Z,82.16
2022-08-31T20:57:40.380Z,82.24
2022-08-31T21:00:10.860Z,82.31
2022-08-31T21:02:42.090Z,82.58
2022-08-31T21:08:00.016Z,83.18
2022-08-31T21:10:36.801Z,83.30
2022-08-31T21:13:12.790Z,83.47
2022-08-31T21:15:45.609Z,83.69
2022-08-31T21:18:19.106Z,83.87
2022-08-31T21:20:48.549Z,83.95
2022-08-31T21:23:17.421Z,84.16
2022-08-31T21:25:46.642Z,84.36
2022-08-31T21:28:18.576Z,84.25
2022-08-31T21:30:50.091Z,84.47
2022-08-31T21:33:19.095Z,84.44
2022-08-31T21:35:47.965Z,84.64
2022-08-31T21:38:18.187Z,84.81
2022-08-31T21:40:50.215Z,85.13
2022-08-31T21:43:19.763Z,85.26
2022-08-31T21:45:50.251Z,85.51
2022-08-31T21:48:26.152Z,85.70
2022-08-31T21:50:56.667Z,85.92
2022-08-31T21:53:27.385Z,85.85
2022-08-31T21:55:55.711Z,86.04
2022-08-31T21:58:24.132Z,86.14
2022-08-31T22:00:55.481Z,86.19
2022-08-31T22:03:23.842Z,86.48
2022-08-31T22:05:53.403Z,86.68
2022-08-31T22:08:26.160Z,86.76
2022-08-31T22:10:55.579Z,86.89
2022-08-31T22:13:23.972Z,87.13
2022-08-31T22:15:52.792Z,87.22
2022-08-31T22:21:34.613Z,87.38
2022-08-31T22:24:08.135Z,87.40
2022-08-31T22:26:41.818Z,87.56
2022-08-31T22:29:12.684Z,87.47
2022-08-31T22:31:42.095Z,87.59
2022-08-31T22:34:11.641Z,87.69
2022-08-31T22:36:40.694Z,87.88
2022-08-31T22:39:15.000Z,87.96
2022-08-31T22:41:44.561Z,88.20
2022-08-31T22:44:17.519Z,88.40
2022-08-31T22:46:46.616Z,88.50
2022-08-31T22:49:15.429Z,88.48
2022-08-31T22:51:47.678Z,88.73
2022-08-31T22:54:19.446Z,88.73
2022-08-31T22:56:49.086Z,88.91
2022-08-31T22:59:26.188Z,89.01
2022-08-31T23:02:03.674Z,89.14
2022-08-31T23:04:34.324Z,89.36
2022-08-31T23:07:04.392Z,89.37
2022-08-31T23:09:34.146Z,89.46
2022-08-31T23:12:05.343Z,89.61
2022-08-31T23:14:34.033Z,89.77
2022-08-31T23:17:08.730Z,89.73
2022-08-31T23:19:42.321Z,89.74
2022-08-31T23:22:15.228Z,89.83
2022-08-31T23:24:47.934Z,89.98
2022-08-31T23:27:21.744Z,90.09
2022-08-31T23:29:56.007Z,90.12
2022-08-31T23:32:28.024Z,90.20
2022-08-31T23:34:58.176Z,90.19
2022-08-31T23:37:27.497Z,90.37
2022-08-31T23:39:58.166Z,90.39
2022-08-31T23:42:28.488Z,90.64
2022-08-31T23:44:58.028Z,90.61
2022-08-31T23:47:30.367Z,90.61
2022-08-31T23:49:59.410Z,90.59
2022-08-31T23:52:29.671Z,90.62
2022-08-31T23:54:59.798Z,90.85
2022-08-31T23:57:32.551Z,90.79
